Edsbyn, Sweden
Current Conditions -  °F | °C
As of 5:20 PM on Friday 24 Oct 2014 (Local Time) from ESSD Reporting Station
Haze Haze  
Wind Chill: 40°   Ceiling: 900
Heat Index: 46°   Visibility: 6mi
Dew Point: 45°   Wind: 16mph
Humidity: 93%   Direction: 180°S
Pressure: 29.91"   Gusts: NA
Location:  61.38°N, 15.82°E
Report Text: ESSD 241520Z 18014KT 9999 BR FEW006 SCT008 BKN009 08/07 Q1013
Loading
Personal Weather Stations






























Interactive Weather Map
Tropical Storm Tracking
New forecast layout! Learn more

10-Day Weather Forecast

Advertisements
Track Severe Weather on mobile